Latest Coastal Weather Observations for Weipa

IDQ60701

Issued at 8:12 am EST Friday 23 June 2017 (issued every 10 minutes, with the page automatically refreshed every 10 minutes)

About coastal observations | Map of coastal stations | Coastal observations for QLD | Marine services | Other Formats
Station Details ID: 027045 Name: WEIPA AERO Lat: -12.68 Lon: 141.92 Height: 17.96 m
Data from the previous 72 hours. | See also: Recent months at Weipa
Date/Time
EST
Temp
°C
Wind Pressure Rain since
9am
mm
Weather Cloud Vis
km
Sea
Height
m
Swell
Dir  Spd
kts
Gust
kts
hPa Trend Height
m
Period
s
Dir
23/08:00am 21.0 SE 8 10 1014.9 - 0.0 - - 10 - - - -
23/07:30am 20.2 SE 6 8 1014.8 - 0.0 - - 10 - - - -
23/07:00am 19.8 SE 6 7 1014.8 - 0.0 - - 10 - - - -
23/06:30am 20.0 SE 6 9 1014.5 - 0.0 - Partly cloudy 10 - - - -
23/06:00am 19.7 SE 6 8 1014.3 - 0.0 - Mostly clear 10 - - - -
23/05:30am 19.9 SSE 5 8 1014.2 - 0.0 - Partly cloudy 10 - - - -
23/05:00am 20.4 SSE 5 7 1014.3 - 0.0 - Partly cloudy 10 - - - -
23/04:30am 20.2 SSE 5 7 1014.1 - 0.0 - - 10 - - - -
23/04:00am 20.5 SE 5 7 1013.9 - 0.0 - - 10 - - - -
23/03:30am 20.8 SE 7 8 1013.9 - 0.0 - - 10 - - - -
23/03:00am 21.2 SE 8 10 1013.9 - 0.0 - - 10 - - - -
23/02:30am 20.7 SE 6 7 1014.1 - 0.0 - - 10 - - - -
23/02:00am 20.8 SE 6 8 1014.3 - 0.0 - - 10 - - - -
23/01:30am 21.2 SE 6 8 1014.6 - 0.0 - - 10 - - - -
23/01:00am 21.4 SE 6 9 1014.9 - 0.0 - - 10 - - - -
23/12:30am 21.7 SE 8 11 1014.8 - 0.0 - - 10 - - - -
23/12:00am 22.2 SE 9 12 1015.0 - 0.0 - - 10 - - - -
 
Date/Time
EST
Temp
°C
Wind Pressure Rain since
9am
mm
Weather Cloud Vis
km
Sea
Height
m
Swell
Dir  Spd
kts
Gust
kts
hPa Trend Height
m
Period
s
Dir
22/11:30pm 21.8 SE 9 12 1015.1 - 0.0 - - 10 - - - -
22/11:00pm 22.3 SE 7 11 1015.3 - 0.0 - - 10 - - - -
22/10:30pm 22.7 SE 9 12 1015.4 - 0.0 - - 10 - - - -
22/10:00pm 22.8 SE 7 12 1015.6 - 0.0 - - 10 - - - -
22/09:30pm 23.2 SE 9 14 1015.6 - 0.0 - - 10 - - - -
22/09:00pm 23.6 SE 10 13 1015.6 - 0.0 - - 10 - - - -
22/08:30pm 23.6 ESE 7 11 1015.3 - 0.0 - - 10 - - - -
22/08:00pm 24.2 ESE 7 10 1014.8 - 0.0 - - 10 - - - -
22/07:30pm 24.7 ESE 10 13 1014.3 - 0.0 - - 10 - - - -
22/07:00pm 24.9 ESE 8 11 1013.8 - 0.0 - - 10 - - - -
22/06:30pm 25.4 SE 9 13 1013.4 - 0.0 - - 10 - - - -
22/06:00pm 26.1 ESE 10 17 1012.9 - 0.0 - Mostly clear 10 - - - -
22/05:30pm 26.7 ESE 12 16 1012.6 - 0.0 - Cloudy 10 - - - -
22/05:00pm 27.0 ESE 16 20 1012.3 - 0.0 - Cloudy 10 - - - -
22/04:30pm 27.5 ESE 13 19 1012.1 - 0.0 - Partly cloudy 10 - - - -
22/04:00pm 27.7 ESE 13 19 1012.2 - 0.0 - Cloudy 10 - - - -
22/03:30pm 27.8 ESE 15 23 1012.1 - 0.0 - Cloudy 10 - - - -
22/03:00pm 28.0 ESE 15 21 1012.1 - 0.0 - Mostly cloudy 10 - - - -
22/02:30pm 28.7 ESE 16 20 1012.1 - 0.0 - Cloudy 10 - - - -
22/02:00pm 29.1 ESE 14 20 1012.3 - 0.0 - Cloudy 10 - - - -
22/01:30pm 29.2 ESE 13 20 1012.5 - 0.0 - Partly cloudy 10 - - - -
22/01:00pm 28.7 ESE 15 23 1012.7 - 0.0 - Partly cloudy 10 - - - -
22/12:30pm 29.2 ESE 16 21 1013.0 - 0.0 - Cloudy 10 - - - -
22/12:00pm 29.1 ESE 17 24 1013.3 - 0.0 - Partly cloudy 10 - - - -
22/11:30am 28.3 ESE 16 22 1013.8 - 0.0 - Partly cloudy 10 - - - -
22/11:00am 28.2 ESE 17 25 1014.1 - 0.0 - - 10 - - - -
22/10:30am 27.5 ESE 18 23 1014.4 - 0.0 - - 10 - - - -
22/10:00am 26.4 ESE 17 23 1014.6 - 0.0 - - 10 - - - -
22/09:30am 25.8 ESE 16 22 1014.8 - 0.0 - - 10 - - - -
22/09:00am 25.1 ESE 13 20 1015.0 - 0.0 - - 10 - - - -
22/08:30am 24.0 SE 10 14 1015.1 - 0.0 - - 10 - - - -
22/08:00am 22.9 SE 7 10 1015.0 - 0.0 - - 10 - - - -
22/07:30am 21.7 SE 7 10 1014.7 - 0.0 - - 10 - - - -
22/07:00am 21.2 SE 6 8 1014.5 - 0.0 - - 10 - - - -
22/06:30am 21.3 SE 7 9 1014.4 - 0.0 - - 10 - - - -
22/06:00am 21.6 SE 8 12 1014.1 - 0.0 - - 10 - - - -
22/05:30am 21.9 SE 7 10 1014.1 - 0.0 - - 10 - - - -
22/05:00am 22.0 SE 8 11 1014.0 - 0.0 - - 10 - - - -
22/04:30am 22.2 SE 9 15 1013.8 - 0.0 - - 10 - - - -
22/04:00am 22.5 SE 10 14 1013.6 - 0.0 - - 10 - - - -
22/03:30am 22.5 SE 10 14 1013.6 - 0.0 - - 10 - - - -
22/03:00am 22.4 SE 10 15 1013.9 - 0.0 - - 10 - - - -
22/02:30am 22.3 SE 8 11 1014.1 - 0.0 - - 10 - - - -
22/02:00am 22.4 SE 8 11 1014.5 - 0.0 - - 10 - - - -
22/01:30am 22.5 SE 8 11 1014.7 - 0.0 - - 10 - - - -
22/01:00am 22.1 SE 6 9 1015.0 - 0.0 - - 10 - - - -
22/12:30am 22.0 ESE 6 8 1015.2 - 0.0 - - 10 - - - -
22/12:00am 21.8 ESE 5 6 1015.3 - 0.0 - - 10 - - - -
 
Date/Time
EST
Temp
°C
Wind Pressure Rain since
9am
mm
Weather Cloud Vis
km
Sea
Height
m
Swell
Dir  Spd
kts
Gust
kts
hPa Trend Height
m
Period
s
Dir
21/11:30pm 21.9 ESE 4 6 1015.6 - 0.0 - - 10 - - - -
21/11:00pm 22.2 ESE 3 4 1015.7 - 0.0 - - 10 - - - -
21/10:30pm 22.5 ESE 4 5 1015.7 - 0.0 - - 10 - - - -
21/10:00pm 23.2 E 5 6 1015.7 - 0.0 - - 10 - - - -
21/09:30pm 23.8 E 5 6 1015.5 - 0.0 - - 10 - - - -
21/09:00pm 24.4 E 7 10 1015.3 - 0.0 - - 10 - - - -
21/08:30pm 24.9 E 8 10 1014.9 - 0.0 - - 10 - - - -
21/08:00pm 25.2 ESE 9 12 1014.7 - 0.0 - - 10 - - - -
21/07:30pm 25.7 ESE 10 14 1014.2 - 0.0 - - 10 - - - -
21/07:00pm 26.5 ESE 12 16 1013.9 - 0.0 - Partly cloudy 10 - - - -
21/06:30pm 26.8 E 9 13 1013.4 - 0.0 - Partly cloudy 10 - - - -
21/06:00pm 27.2 E 13 19 1013.1 - 0.0 - Partly cloudy 10 - - - -
21/05:30pm 28.0 E 11 15 1012.7 - 0.0 - Partly cloudy 10 - - - -
21/05:00pm 28.9 ESE 12 17 1012.3 - 0.0 - Partly cloudy 10 - - - -
21/04:30pm 29.9 ESE 13 18 1012.1 - 0.0 - Partly cloudy 10 - - - -
21/04:00pm 29.4 ESE 13 19 1011.9 - 0.0 - Partly cloudy 10 - - - -
21/03:30pm 30.1 ESE 13 20 1011.7 - 0.0 - Partly cloudy 10 - - - -
21/03:00pm 30.7 ESE 13 18 1011.7 - 0.0 - Mostly cloudy 10 - - - -
21/02:30pm 31.5 E 12 17 1011.7 - 0.0 - Partly cloudy 10 - - - -
21/02:00pm 30.8 ESE 14 18 1012.1 - 0.0 - Partly cloudy 10 - - - -
21/01:30pm 30.4 SE 13 19 1012.3 - 0.0 - - 10 - - - -
21/01:00pm 30.2 ESE 11 15 1012.6 - 0.0 - - 10 - - - -
21/12:30pm 29.9 ESE 13 18 1013.1 - 0.0 - - 10 - - - -
21/12:00pm 29.4 E 12 16 1013.5 - 0.0 - - 10 - - - -
21/11:30am 29.2 ESE 13 17 1013.9 - 0.0 - - 10 - - - -
21/11:00am 27.9 ESE 16 20 1014.2 - 0.0 - - 10 - - - -
21/10:30am 28.2 ESE 12 17 1014.4 - 0.0 - - 10 - - - -
21/10:00am 25.8 ESE 13 19 1014.8 - 0.0 - - 10 - - - -
21/09:30am 25.2 ESE 13 17 1015.1 - 0.0 - - 10 - - - -
21/09:00am 24.0 ESE 11 16 1015.3 - 0.0 - - 10 - - - -
21/08:30am 22.7 SE 6 9 1015.1 - 0.0 - - 10 - - - -
21/08:00am 21.4 SSE 4 6 1014.9 - 0.0 - - 10 - - - -
21/07:30am 20.3 SE 2 4 1014.6 - 0.0 - - 10 - - - -
21/07:00am 19.6 ESE 3 4 1014.2 - 0.0 - - 10 - - - -
21/06:30am 19.6 SE 3 5 1014.0 - 0.0 - - 10 - - - -
21/06:00am 19.8 ESE 4 5 1013.8 - 0.0 - - 10 - - - -
21/05:30am 20.3 ESE 4 5 1013.7 - 0.0 - - 10 - - - -
21/05:00am 20.8 SE 5 6 1013.6 - 0.0 - - 10 - - - -
21/04:30am 20.8 SSE 3 5 1013.4 - 0.0 - - 10 - - - -
21/04:00am 20.7 ESE 3 5 1013.3 - 0.0 - - 10 - - - -
21/03:30am 20.9 ESE 4 5 1013.2 - 0.0 - - 10 - - - -
21/03:00am 21.2 SE 2 5 1013.4 - 0.0 - - 10 - - - -
21/02:30am 21.3 ESE 3 5 1013.5 - 0.0 - - 10 - - - -
21/02:00am 21.5 ESE 4 4 1013.8 - 0.0 - - 10 - - - -
21/01:30am 21.8 ESE 5 7 1014.0 - 0.0 - - 10 - - - -
21/01:00am 21.9 ESE 5 7 1014.3 - 0.0 - - 10 - - - -
21/12:30am 21.9 SE 4 5 1014.2 - 0.0 - - 10 - - - -
21/12:00am 22.3 E 4 5 1014.3 - 0.0 - - 10 - - - -
 
Date/Time
EST
Temp
°C
Wind Pressure Rain since
9am
mm
Weather Cloud Vis
km
Sea
Height
m
Swell
Dir  Spd
kts
Gust
kts
hPa Trend Height
m
Period
s
Dir
20/11:30pm 22.6 E 6 8 1014.3 - 0.0 - - 10 - - - -
20/11:00pm 23.0 E 6 9 1014.3 - 0.0 - - 10 - - - -
20/10:30pm 23.5 E 7 10 1014.4 - 0.0 - - 10 - - - -
20/10:00pm 23.8 E 9 11 1014.1 - 0.0 - - 10 - - - -
20/09:30pm 24.3 E 12 17 1013.9 - 0.0 - - 10 - - - -
20/09:00pm 24.6 E 12 18 1013.8 - 0.0 - - 10 - - - -
20/08:30pm 24.8 E 9 12 1013.4 - 0.0 - - 10 - - - -
20/08:00pm 25.2 ENE 8 12 1013.1 - 0.0 - - 10 - - - -
20/07:30pm 25.7 E 10 14 1012.8 - 0.0 - - 10 - - - -
20/07:00pm 25.8 E 6 7 1012.6 - 0.0 - - 10 - - - -
20/06:30pm 26.3 E 6 8 1012.3 - 0.0 - Partly cloudy 10 - - - -
20/06:00pm 26.9 E 7 12 1012.2 - 0.0 - - 10 - - - -
20/05:30pm 27.4 E 10 15 1012.0 - 0.0 - - 10 - - - -
20/05:00pm 28.0 E 12 16 1011.7 - 0.0 - - 10 - - - -
20/04:30pm 28.8 E 12 18 1011.4 - 0.0 - - 10 - - - -
20/04:00pm 29.0 E 12 17 1011.1 - 0.0 - Partly cloudy 10 - - - -
20/03:30pm 29.0 ESE 14 18 1011.1 - 0.0 - Partly cloudy 10 - - - -
20/03:00pm 29.3 E 11 18 1011.2 - 0.0 - Partly cloudy 10 - - - -
20/02:30pm 29.3 E 14 19 1011.5 - 0.0 - Partly cloudy 10 - - - -
20/02:00pm 30.4 E 11 16 1011.7 - 0.0 - Partly cloudy 10 - - - -
20/01:30pm 29.4 ESE 12 16 1011.9 - 0.0 - Partly cloudy 10 - - - -
20/01:00pm 29.8 ESE 13 18 1012.5 - 0.0 - - 10 - - - -
20/12:30pm 30.1 E 11 18 1012.8 - 0.0 - Partly cloudy 10 - - - -
20/12:00pm 28.2 E 14 20 1013.1 - 0.0 - Mostly clear 10 - - - -
20/11:30am 28.7 ESE 16 19 1013.4 - 0.0 - - 10 - - - -
20/11:00am 28.0 E 14 18 1013.8 - 0.0 - - 10 - - - -
20/10:30am 27.7 ESE 16 20 1014.0 - 0.0 - - 10 - - - -
20/10:00am 26.6 ESE 15 21 1014.1 - 0.0 - - 10 - - - -
20/09:30am 25.7 ESE 14 23 1014.1 - 0.0 - - 10 - - - -
20/09:00am 24.7 ESE 15 20 1014.1 - 0.0 - - 10 - - - -
20/08:30am 23.8 SE 13 19 1014.1 - 0.0 - - 10 - - - -

Other Formats:

Comma delimited format used in spreadsheet applications
http://www.bom.gov.au/fwo/IDQ60701/IDQ60701.94170.axf

JavaScript Object Notation format (JSON) in row-major order
http://www.bom.gov.au/fwo/IDQ60701/IDQ60701.94170.json